sensor_id;sensor_type;location;lat;lon;timestamp;P1;durP1;ratioP1;P2;durP2;ratioP2
46284;SDS011;32018;59.182;18.148;2024-01-30T00:00:15;4.63;;;4.22;;
46284;SDS011;32018;59.182;18.148;2024-01-30T00:02:40;4.38;;;4.07;;
46284;SDS011;32018;59.182;18.148;2024-01-30T00:05:06;4.95;;;4.55;;
46284;SDS011;32018;59.182;18.148;2024-01-30T00:07:31;4.82;;;4.35;;
46284;SDS011;32018;59.182;18.148;2024-01-30T00:09:56;4.57;;;4.18;;
46284;SDS011;32018;59.182;18.148;2024-01-30T00:12:22;4.22;;;3.92;;
46284;SDS011;32018;59.182;18.148;2024-01-30T00:14:47;4.13;;;3.78;;
46284;SDS011;32018;59.182;18.148;2024-01-30T00:17:12;4.63;;;4.22;;
46284;SDS011;32018;59.182;18.148;2024-01-30T00:19:37;4.10;;;3.80;;
46284;SDS011;32018;59.182;18.148;2024-01-30T00:22:02;4.78;;;4.38;;
46284;SDS011;32018;59.182;18.148;2024-01-30T00:24:28;4.78;;;4.35;;
46284;SDS011;32018;59.182;18.148;2024-01-30T00:26:53;4.82;;;4.38;;
46284;SDS011;32018;59.182;18.148;2024-01-30T00:29:18;4.13;;;3.83;;
46284;SDS011;32018;59.182;18.148;2024-01-30T00:31:47;5.90;;;4.10;;
46284;SDS011;32018;59.182;18.148;2024-01-30T00:34:13;4.37;;;4.00;;
46284;SDS011;32018;59.182;18.148;2024-01-30T00:36:38;3.92;;;3.50;;
46284;SDS011;32018;59.182;18.148;2024-01-30T00:39:03;4.97;;;4.40;;
46284;SDS011;32018;59.182;18.148;2024-01-30T00:41:32;4.70;;;4.30;;
46284;SDS011;32018;59.182;18.148;2024-01-30T00:43:57;4.65;;;4.30;;
46284;SDS011;32018;59.182;18.148;2024-01-30T00:46:22;4.57;;;4.18;;
46284;SDS011;32018;59.182;18.148;2024-01-30T00:48:47;4.38;;;4.07;;
46284;SDS011;32018;59.182;18.148;2024-01-30T00:51:13;4.95;;;4.55;;
46284;SDS011;32018;59.182;18.148;2024-01-30T00:53:38;4.38;;;3.97;;
46284;SDS011;32018;59.182;18.148;2024-01-30T00:56:03;4.82;;;4.35;;
46284;SDS011;32018;59.182;18.148;2024-01-30T00:58:28;4.95;;;4.57;;
46284;SDS011;32018;59.182;18.148;2024-01-30T01:00:54;5.23;;;4.57;;
46284;SDS011;32018;59.182;18.148;2024-01-30T01:03:19;4.80;;;4.40;;
46284;SDS011;32018;59.182;18.148;2024-01-30T01:05:44;4.65;;;4.25;;
46284;SDS011;32018;59.182;18.148;2024-01-30T01:08:09;4.75;;;4.35;;
46284;SDS011;32018;59.182;18.148;2024-01-30T01:10:35;4.38;;;3.97;;
46284;SDS011;32018;59.182;18.148;2024-01-30T01:13:00;4.67;;;4.27;;
46284;SDS011;32018;59.182;18.148;2024-01-30T01:15:25;4.95;;;4.55;;
46284;SDS011;32018;59.182;18.148;2024-01-30T01:17:50;4.57;;;4.18;;
46284;SDS011;32018;59.182;18.148;2024-01-30T01:20:15;4.53;;;4.13;;
46284;SDS011;32018;59.182;18.148;2024-01-30T01:22:41;5.00;;;4.60;;
46284;SDS011;32018;59.182;18.148;2024-01-30T01:25:06;4.80;;;4.40;;
46284;SDS011;32018;59.182;18.148;2024-01-30T01:27:33;5.05;;;4.65;;
46284;SDS011;32018;59.182;18.148;2024-01-30T01:29:59;4.38;;;4.00;;
46284;SDS011;32018;59.182;18.148;2024-01-30T01:32:24;4.85;;;4.45;;
46284;SDS011;32018;59.182;18.148;2024-01-30T01:34:50;5.22;;;4.82;;
46284;SDS011;32018;59.182;18.148;2024-01-30T01:37:15;4.70;;;4.30;;
46284;SDS011;32018;59.182;18.148;2024-01-30T01:39:40;4.72;;;4.32;;
46284;SDS011;32018;59.182;18.148;2024-01-30T01:42:06;5.47;;;4.95;;
46284;SDS011;32018;59.182;18.148;2024-01-30T01:44:31;5.03;;;4.72;;
46284;SDS011;32018;59.182;18.148;2024-01-30T01:46:56;5.65;;;4.88;;
46284;SDS011;32018;59.182;18.148;2024-01-30T01:49:26;5.50;;;4.93;;
46284;SDS011;32018;59.182;18.148;2024-01-30T01:51:52;5.03;;;4.55;;
46284;SDS011;32018;59.182;18.148;2024-01-30T01:54:18;5.30;;;4.90;;
46284;SDS011;32018;59.182;18.148;2024-01-30T01:56:44;4.93;;;4.53;;
46284;SDS011;32018;59.182;18.148;2024-01-30T01:59:09;4.95;;;4.55;;
46284;SDS011;32018;59.182;18.148;2024-01-30T02:01:37;5.38;;;4.88;;
46284;SDS011;32018;59.182;18.148;2024-01-30T02:04:02;5.15;;;4.65;;
46284;SDS011;32018;59.182;18.148;2024-01-30T02:06:28;5.47;;;4.82;;
46284;SDS011;32018;59.182;18.148;2024-01-30T02:08:53;5.78;;;5.28;;
46284;SDS011;32018;59.182;18.148;2024-01-30T02:11:19;5.30;;;4.90;;
46284;SDS011;32018;59.182;18.148;2024-01-30T02:13:45;5.22;;;4.72;;
46284;SDS011;32018;59.182;18.148;2024-01-30T02:16:10;4.38;;;4.07;;
46284;SDS011;32018;59.182;18.148;2024-01-30T02:18:35;5.13;;;4.68;;
46284;SDS011;32018;59.182;18.148;2024-01-30T02:21:04;4.97;;;4.50;;
46284;SDS011;32018;59.182;18.148;2024-01-30T02:23:29;4.65;;;4.25;;
46284;SDS011;32018;59.182;18.148;2024-01-30T02:25:55;5.10;;;4.70;;
46284;SDS011;32018;59.182;18.148;2024-01-30T02:28:20;4.63;;;4.28;;
46284;SDS011;32018;59.182;18.148;2024-01-30T02:30:46;5.68;;;5.18;;
46284;SDS011;32018;59.182;18.148;2024-01-30T02:33:11;5.53;;;5.03;;
46284;SDS011;32018;59.182;18.148;2024-01-30T02:35:36;5.55;;;5.15;;
46284;SDS011;32018;59.182;18.148;2024-01-30T02:38:01;5.77;;;5.20;;
46284;SDS011;32018;59.182;18.148;2024-01-30T02:40:27;5.72;;;5.22;;
46284;SDS011;32018;59.182;18.148;2024-01-30T02:42:52;5.18;;;4.78;;
46284;SDS011;32018;59.182;18.148;2024-01-30T02:45:17;5.90;;;5.40;;
46284;SDS011;32018;59.182;18.148;2024-01-30T02:47:43;6.13;;;5.63;;
46284;SDS011;32018;59.182;18.148;2024-01-30T02:50:08;5.37;;;4.90;;
46284;SDS011;32018;59.182;18.148;2024-01-30T02:52:33;5.10;;;4.60;;
46284;SDS011;32018;59.182;18.148;2024-01-30T02:54:59;5.00;;;4.60;;
46284;SDS011;32018;59.182;18.148;2024-01-30T02:57:24;5.90;;;4.80;;
46284;SDS011;32018;59.182;18.148;2024-01-30T02:59:49;5.43;;;4.93;;
46284;SDS011;32018;59.182;18.148;2024-01-30T03:02:15;5.40;;;5.00;;
46284;SDS011;32018;59.182;18.148;2024-01-30T03:04:40;6.00;;;5.50;;
46284;SDS011;32018;59.182;18.148;2024-01-30T03:07:06;5.55;;;5.05;;
46284;SDS011;32018;59.182;18.148;2024-01-30T03:09:31;5.60;;;5.10;;
46284;SDS011;32018;59.182;18.148;2024-01-30T03:11:56;6.18;;;5.57;;
46284;SDS011;32018;59.182;18.148;2024-01-30T03:14:21;5.33;;;4.93;;
46284;SDS011;32018;59.182;18.148;2024-01-30T03:16:46;5.20;;;4.80;;
46284;SDS011;32018;59.182;18.148;2024-01-30T03:19:12;6.30;;;5.80;;
46284;SDS011;32018;59.182;18.148;2024-01-30T03:21:37;5.95;;;5.45;;
46284;SDS011;32018;59.182;18.148;2024-01-30T03:24:02;5.30;;;4.85;;
46284;SDS011;32018;59.182;18.148;2024-01-30T03:26:27;5.45;;;5.03;;
46284;SDS011;32018;59.182;18.148;2024-01-30T03:28:53;5.97;;;5.47;;
46284;SDS011;32018;59.182;18.148;2024-01-30T03:31:18;5.53;;;4.97;;
46284;SDS011;32018;59.182;18.148;2024-01-30T03:33:43;5.60;;;5.13;;
46284;SDS011;32018;59.182;18.148;2024-01-30T03:36:08;5.05;;;4.47;;
46284;SDS011;32018;59.182;18.148;2024-01-30T03:38:34;5.90;;;5.40;;
46284;SDS011;32018;59.182;18.148;2024-01-30T03:40:59;6.30;;;5.70;;
46284;SDS011;32018;59.182;18.148;2024-01-30T03:43:25;6.22;;;5.72;;
46284;SDS011;32018;59.182;18.148;2024-01-30T03:45:50;5.75;;;5.20;;
46284;SDS011;32018;59.182;18.148;2024-01-30T03:48:15;5.90;;;5.07;;
46284;SDS011;32018;59.182;18.148;2024-01-30T03:50:40;5.50;;;5.00;;
46284;SDS011;32018;59.182;18.148;2024-01-30T03:53:05;5.88;;;5.22;;
46284;SDS011;32018;59.182;18.148;2024-01-30T03:55:31;5.78;;;5.35;;
46284;SDS011;32018;59.182;18.148;2024-01-30T03:57:56;5.93;;;5.35;;
46284;SDS011;32018;59.182;18.148;2024-01-30T04:00:21;6.53;;;5.55;;
46284;SDS011;32018;59.182;18.148;2024-01-30T04:02:46;6.47;;;5.80;;
46284;SDS011;32018;59.182;18.148;2024-01-30T04:05:12;6.07;;;5.50;;
46284;SDS011;32018;59.182;18.148;2024-01-30T04:07:37;5.75;;;5.25;;
46284;SDS011;32018;59.182;18.148;2024-01-30T04:10:02;5.72;;;5.22;;
46284;SDS011;32018;59.182;18.148;2024-01-30T04:12:30;6.53;;;5.95;;
46284;SDS011;32018;59.182;18.148;2024-01-30T04:14:55;7.30;;;6.60;;
46284;SDS011;32018;59.182;18.148;2024-01-30T04:17:21;6.20;;;5.68;;
46284;SDS011;32018;59.182;18.148;2024-01-30T04:19:46;7.00;;;6.30;;
46284;SDS011;32018;59.182;18.148;2024-01-30T04:22:11;7.00;;;6.43;;
46284;SDS011;32018;59.182;18.148;2024-01-30T04:24:36;5.70;;;5.20;;
46284;SDS011;32018;59.182;18.148;2024-01-30T04:27:02;6.72;;;6.13;;
46284;SDS011;32018;59.182;18.148;2024-01-30T04:29:27;6.60;;;6.03;;
46284;SDS011;32018;59.182;18.148;2024-01-30T04:31:52;6.97;;;6.38;;
46284;SDS011;32018;59.182;18.148;2024-01-30T04:34:17;6.73;;;6.23;;
46284;SDS011;32018;59.182;18.148;2024-01-30T04:36:44;6.27;;;5.77;;
46284;SDS011;32018;59.182;18.148;2024-01-30T04:39:09;6.30;;;5.70;;
46284;SDS011;32018;59.182;18.148;2024-01-30T04:41:34;6.50;;;5.90;;
46284;SDS011;32018;59.182;18.148;2024-01-30T04:43:59;6.75;;;6.20;;
46284;SDS011;32018;59.182;18.148;2024-01-30T04:46:25;6.03;;;5.63;;
46284;SDS011;32018;59.182;18.148;2024-01-30T04:48:50;6.68;;;6.18;;
46284;SDS011;32018;59.182;18.148;2024-01-30T04:51:15;6.03;;;5.53;;
46284;SDS011;32018;59.182;18.148;2024-01-30T04:53:40;6.50;;;5.97;;
46284;SDS011;32018;59.182;18.148;2024-01-30T04:56:06;5.97;;;5.43;;
46284;SDS011;32018;59.182;18.148;2024-01-30T04:58:31;6.28;;;5.72;;
46284;SDS011;32018;59.182;18.148;2024-01-30T05:00:56;6.60;;;6.00;;
46284;SDS011;32018;59.182;18.148;2024-01-30T05:03:22;6.45;;;5.85;;
46284;SDS011;32018;59.182;18.148;2024-01-30T05:05:48;6.70;;;6.10;;
46284;SDS011;32018;59.182;18.148;2024-01-30T05:08:14;6.35;;;5.80;;
46284;SDS011;32018;59.182;18.148;2024-01-30T05:10:39;6.43;;;5.93;;
46284;SDS011;32018;59.182;18.148;2024-01-30T05:13:04;6.63;;;6.13;;
46284;SDS011;32018;59.182;18.148;2024-01-30T05:15:29;6.68;;;6.07;;
46284;SDS011;32018;59.182;18.148;2024-01-30T05:17:55;6.05;;;5.55;;
46284;SDS011;32018;59.182;18.148;2024-01-30T05:20:20;6.55;;;6.05;;
46284;SDS011;32018;59.182;18.148;2024-01-30T05:22:45;7.10;;;6.50;;
46284;SDS011;32018;59.182;18.148;2024-01-30T05:25:12;7.00;;;6.50;;
46284;SDS011;32018;59.182;18.148;2024-01-30T05:27:37;6.90;;;6.30;;
46284;SDS011;32018;59.182;18.148;2024-01-30T05:30:02;6.25;;;5.75;;
46284;SDS011;32018;59.182;18.148;2024-01-30T05:32:28;6.30;;;5.80;;
46284;SDS011;32018;59.182;18.148;2024-01-30T05:34:53;6.30;;;5.82;;
46284;SDS011;32018;59.182;18.148;2024-01-30T05:37:18;6.88;;;6.28;;
46284;SDS011;32018;59.182;18.148;2024-01-30T05:39:43;6.60;;;6.10;;
46284;SDS011;32018;59.182;18.148;2024-01-30T05:42:08;6.13;;;5.63;;
46284;SDS011;32018;59.182;18.148;2024-01-30T05:44:35;6.28;;;5.78;;
46284;SDS011;32018;59.182;18.148;2024-01-30T05:47:00;6.50;;;6.00;;
46284;SDS011;32018;59.182;18.148;2024-01-30T05:49:25;5.90;;;5.50;;
46284;SDS011;32018;59.182;18.148;2024-01-30T05:51:50;6.27;;;5.87;;
46284;SDS011;32018;59.182;18.148;2024-01-30T05:54:16;6.05;;;5.63;;
46284;SDS011;32018;59.182;18.148;2024-01-30T05:56:41;6.25;;;5.72;;
46284;SDS011;32018;59.182;18.148;2024-01-30T05:59:06;5.60;;;5.20;;
46284;SDS011;32018;59.182;18.148;2024-01-30T06:01:31;6.22;;;5.72;;
46284;SDS011;32018;59.182;18.148;2024-01-30T06:03:57;5.90;;;5.50;;
46284;SDS011;32018;59.182;18.148;2024-01-30T06:06:22;6.00;;;5.60;;
46284;SDS011;32018;59.182;18.148;2024-01-30T06:08:47;5.78;;;5.28;;
46284;SDS011;32018;59.182;18.148;2024-01-30T06:11:12;5.85;;;5.45;;
46284;SDS011;32018;59.182;18.148;2024-01-30T06:13:38;6.07;;;5.57;;
46284;SDS011;32018;59.182;18.148;2024-01-30T06:16:03;6.07;;;5.68;;
46284;SDS011;32018;59.182;18.148;2024-01-30T06:18:28;6.28;;;5.80;;
46284;SDS011;32018;59.182;18.148;2024-01-30T06:20:55;5.95;;;5.53;;
46284;SDS011;32018;59.182;18.148;2024-01-30T06:23:20;5.97;;;5.57;;
46284;SDS011;32018;59.182;18.148;2024-01-30T06:25:46;6.03;;;5.63;;
46284;SDS011;32018;59.182;18.148;2024-01-30T06:28:11;5.75;;;5.35;;
46284;SDS011;32018;59.182;18.148;2024-01-30T06:30:36;6.50;;;6.00;;
46284;SDS011;32018;59.182;18.148;2024-01-30T06:33:01;6.65;;;6.20;;
46284;SDS011;32018;59.182;18.148;2024-01-30T06:35:26;5.97;;;5.57;;
46284;SDS011;32018;59.182;18.148;2024-01-30T06:37:53;6.35;;;5.88;;
46284;SDS011;32018;59.182;18.148;2024-01-30T06:40:19;5.20;;;4.90;;
46284;SDS011;32018;59.182;18.148;2024-01-30T06:42:44;5.33;;;5.00;;
46284;SDS011;32018;59.182;18.148;2024-01-30T06:45:09;5.85;;;5.35;;
46284;SDS011;32018;59.182;18.148;2024-01-30T06:47:34;6.43;;;5.93;;
46284;SDS011;32018;59.182;18.148;2024-01-30T06:50:00;5.35;;;5.05;;
46284;SDS011;32018;59.182;18.148;2024-01-30T06:52:27;6.30;;;5.90;;
46284;SDS011;32018;59.182;18.148;2024-01-30T06:54:52;5.63;;;5.22;;
46284;SDS011;32018;59.182;18.148;2024-01-30T06:57:17;6.32;;;5.82;;
46284;SDS011;32018;59.182;18.148;2024-01-30T06:59:42;5.90;;;5.50;;
46284;SDS011;32018;59.182;18.148;2024-01-30T07:02:09;5.90;;;5.50;;
46284;SDS011;32018;59.182;18.148;2024-01-30T07:04:34;5.43;;;5.05;;
46284;SDS011;32018;59.182;18.148;2024-01-30T07:07:02;5.68;;;5.28;;
46284;SDS011;32018;59.182;18.148;2024-01-30T07:09:27;5.72;;;5.32;;
46284;SDS011;32018;59.182;18.148;2024-01-30T07:11:53;5.22;;;4.93;;
46284;SDS011;32018;59.182;18.148;2024-01-30T07:14:18;5.55;;;5.15;;
46284;SDS011;32018;59.182;18.148;2024-01-30T07:16:43;6.07;;;5.57;;
46284;SDS011;32018;59.182;18.148;2024-01-30T07:19:08;5.43;;;5.03;;
46284;SDS011;32018;59.182;18.148;2024-01-30T07:21:34;6.43;;;5.93;;
46284;SDS011;32018;59.182;18.148;2024-01-30T07:23:59;5.97;;;5.57;;
46284;SDS011;32018;59.182;18.148;2024-01-30T07:26:24;5.90;;;5.50;;
46284;SDS011;32018;59.182;18.148;2024-01-30T07:28:50;5.95;;;5.55;;
46284;SDS011;32018;59.182;18.148;2024-01-30T07:31:16;5.85;;;5.45;;
46284;SDS011;32018;59.182;18.148;2024-01-30T07:33:41;6.45;;;6.05;;
46284;SDS011;32018;59.182;18.148;2024-01-30T07:36:06;6.22;;;5.82;;
46284;SDS011;32018;59.182;18.148;2024-01-30T07:38:31;5.82;;;5.43;;
46284;SDS011;32018;59.182;18.148;2024-01-30T07:40:57;4.80;;;4.50;;
46284;SDS011;32018;59.182;18.148;2024-01-30T07:43:22;6.10;;;5.70;;
46284;SDS011;32018;59.182;18.148;2024-01-30T07:45:48;5.85;;;5.45;;
46284;SDS011;32018;59.182;18.148;2024-01-30T07:48:13;5.82;;;5.43;;
46284;SDS011;32018;59.182;18.148;2024-01-30T07:50:39;5.40;;;5.00;;
46284;SDS011;32018;59.182;18.148;2024-01-30T07:53:04;5.72;;;5.32;;
46284;SDS011;32018;59.182;18.148;2024-01-30T07:55:29;5.45;;;5.05;;
46284;SDS011;32018;59.182;18.148;2024-01-30T07:57:56;5.18;;;4.88;;
46284;SDS011;32018;59.182;18.148;2024-01-30T08:00:22;6.45;;;6.00;;
46284;SDS011;32018;59.182;18.148;2024-01-30T08:02:47;5.50;;;5.13;;
46284;SDS011;32018;59.182;18.148;2024-01-30T08:05:13;5.93;;;5.53;;
46284;SDS011;32018;59.182;18.148;2024-01-30T08:07:40;6.00;;;5.60;;
46284;SDS011;32018;59.182;18.148;2024-01-30T08:10:05;5.72;;;5.32;;
46284;SDS011;32018;59.182;18.148;2024-01-30T08:12:31;5.93;;;5.53;;
46284;SDS011;32018;59.182;18.148;2024-01-30T08:14:56;5.97;;;5.57;;
46284;SDS011;32018;59.182;18.148;2024-01-30T08:17:21;5.72;;;5.32;;
46284;SDS011;32018;59.182;18.148;2024-01-30T08:19:46;6.53;;;6.07;;
46284;SDS011;32018;59.182;18.148;2024-01-30T08:22:12;6.35;;;5.85;;
46284;SDS011;32018;59.182;18.148;2024-01-30T08:24:38;5.00;;;4.60;;
46284;SDS011;32018;59.182;18.148;2024-01-30T08:27:06;6.22;;;5.82;;
46284;SDS011;32018;59.182;18.148;2024-01-30T08:29:31;5.90;;;5.45;;
46284;SDS011;32018;59.182;18.148;2024-01-30T08:31:56;5.57;;;5.13;;
46284;SDS011;32018;59.182;18.148;2024-01-30T08:34:24;5.68;;;5.28;;
46284;SDS011;32018;59.182;18.148;2024-01-30T08:36:49;5.80;;;5.40;;
46284;SDS011;32018;59.182;18.148;2024-01-30T08:39:14;5.38;;;4.97;;
46284;SDS011;32018;59.182;18.148;2024-01-30T08:41:39;5.30;;;4.80;;
46284;SDS011;32018;59.182;18.148;2024-01-30T08:44:05;5.70;;;5.30;;
46284;SDS011;32018;59.182;18.148;2024-01-30T08:46:30;6.03;;;5.63;;
46284;SDS011;32018;59.182;18.148;2024-01-30T08:48:55;5.93;;;5.53;;
46284;SDS011;32018;59.182;18.148;2024-01-30T08:51:21;5.65;;;5.25;;
46284;SDS011;32018;59.182;18.148;2024-01-30T08:53:46;5.90;;;5.50;;
46284;SDS011;32018;59.182;18.148;2024-01-30T08:56:11;5.95;;;5.45;;
46284;SDS011;32018;59.182;18.148;2024-01-30T08:58:37;6.07;;;5.60;;
46284;SDS011;32018;59.182;18.148;2024-01-30T09:01:02;5.50;;;5.10;;
46284;SDS011;32018;59.182;18.148;2024-01-30T09:03:28;5.22;;;4.80;;
46284;SDS011;32018;59.182;18.148;2024-01-30T09:05:54;5.78;;;5.38;;
46284;SDS011;32018;59.182;18.148;2024-01-30T09:08:19;5.50;;;5.00;;
46284;SDS011;32018;59.182;18.148;2024-01-30T09:10:44;5.47;;;5.07;;
46284;SDS011;32018;59.182;18.148;2024-01-30T09:13:09;5.57;;;5.20;;
46284;SDS011;32018;59.182;18.148;2024-01-30T09:15:34;5.80;;;5.40;;
46284;SDS011;32018;59.182;18.148;2024-01-30T09:18:00;4.85;;;4.47;;
46284;SDS011;32018;59.182;18.148;2024-01-30T09:20:25;5.55;;;5.15;;
46284;SDS011;32018;59.182;18.148;2024-01-30T09:22:51;6.00;;;5.50;;
46284;SDS011;32018;59.182;18.148;2024-01-30T09:25:16;6.10;;;5.63;;
46284;SDS011;32018;59.182;18.148;2024-01-30T09:27:43;5.47;;;5.07;;
46284;SDS011;32018;59.182;18.148;2024-01-30T09:30:08;6.35;;;5.85;;
46284;SDS011;32018;59.182;18.148;2024-01-30T09:32:34;5.57;;;5.18;;
46284;SDS011;32018;59.182;18.148;2024-01-30T09:34:59;5.35;;;4.95;;
46284;SDS011;32018;59.182;18.148;2024-01-30T09:37:24;5.20;;;4.80;;
46284;SDS011;32018;59.182;18.148;2024-01-30T09:39:49;5.53;;;5.13;;
46284;SDS011;32018;59.182;18.148;2024-01-30T09:42:21;5.65;;;5.15;;
46284;SDS011;32018;59.182;18.148;2024-01-30T09:44:51;5.57;;;5.07;;
46284;SDS011;32018;59.182;18.148;2024-01-30T09:47:18;4.90;;;4.50;;
46284;SDS011;32018;59.182;18.148;2024-01-30T09:49:43;5.10;;;4.73;;
46284;SDS011;32018;59.182;18.148;2024-01-30T09:52:08;5.60;;;5.20;;
46284;SDS011;32018;59.182;18.148;2024-01-30T09:54:34;5.85;;;5.40;;
46284;SDS011;32018;59.182;18.148;2024-01-30T09:57:00;5.15;;;4.68;;
46284;SDS011;32018;59.182;18.148;2024-01-30T09:59:25;5.35;;;4.95;;
46284;SDS011;32018;59.182;18.148;2024-01-30T10:01:50;5.20;;;4.80;;
46284;SDS011;32018;59.182;18.148;2024-01-30T10:04:16;6.05;;;5.55;;
46284;SDS011;32018;59.182;18.148;2024-01-30T10:06:41;7.60;;;6.97;;
46284;SDS011;32018;59.182;18.148;2024-01-30T10:09:06;5.55;;;5.15;;
46284;SDS011;32018;59.182;18.148;2024-01-30T10:11:32;5.28;;;4.88;;
46284;SDS011;32018;59.182;18.148;2024-01-30T10:13:57;5.60;;;5.10;;
46284;SDS011;32018;59.182;18.148;2024-01-30T10:16:22;5.53;;;5.13;;
46284;SDS011;32018;59.182;18.148;2024-01-30T10:18:47;6.63;;;6.03;;
46284;SDS011;32018;59.182;18.148;2024-01-30T10:21:13;6.20;;;5.70;;
46284;SDS011;32018;59.182;18.148;2024-01-30T10:23:38;8.88;;;8.07;;
46284;SDS011;32018;59.182;18.148;2024-01-30T10:26:04;5.93;;;5.53;;
46284;SDS011;32018;59.182;18.148;2024-01-30T10:28:29;5.45;;;5.00;;
46284;SDS011;32018;59.182;18.148;2024-01-30T10:31:01;5.88;;;5.38;;
46284;SDS011;32018;59.182;18.148;2024-01-30T10:33:26;4.93;;;4.43;;
46284;SDS011;32018;59.182;18.148;2024-01-30T10:35:54;8.02;;;6.70;;
46284;SDS011;32018;59.182;18.148;2024-01-30T10:38:20;8.32;;;7.13;;
46284;SDS011;32018;59.182;18.148;2024-01-30T10:40:46;6.05;;;5.53;;
46284;SDS011;32018;59.182;18.148;2024-01-30T10:43:12;15.90;;;10.38;;
46284;SDS011;32018;59.182;18.148;2024-01-30T10:45:40;11.75;;;10.63;;
46284;SDS011;32018;59.182;18.148;2024-01-30T10:48:08;10.57;;;6.43;;
46284;SDS011;32018;59.182;18.148;2024-01-30T10:50:34;7.85;;;7.15;;
46284;SDS011;32018;59.182;18.148;2024-01-30T10:53:00;7.15;;;6.55;;
46284;SDS011;32018;59.182;18.148;2024-01-30T10:55:26;11.15;;;8.80;;
46284;SDS011;32018;59.182;18.148;2024-01-30T10:57:53;8.98;;;8.02;;
46284;SDS011;32018;59.182;18.148;2024-01-30T11:00:19;14.48;;;8.27;;
46284;SDS011;32018;59.182;18.148;2024-01-30T11:02:48;7.30;;;6.60;;
46284;SDS011;32018;59.182;18.148;2024-01-30T11:05:13;6.30;;;5.80;;
46284;SDS011;32018;59.182;18.148;2024-01-30T11:07:40;7.20;;;6.60;;
46284;SDS011;32018;59.182;18.148;2024-01-30T11:10:08;7.00;;;6.40;;
46284;SDS011;32018;59.182;18.148;2024-01-30T11:12:37;7.97;;;7.38;;
46284;SDS011;32018;59.182;18.148;2024-01-30T11:15:09;6.28;;;5.70;;
46284;SDS011;32018;59.182;18.148;2024-01-30T11:17:41;11.55;;;8.65;;
46284;SDS011;32018;59.182;18.148;2024-01-30T11:23:10;11.20;;;9.55;;
46284;SDS011;32018;59.182;18.148;2024-01-30T11:25:36;7.28;;;6.57;;
46284;SDS011;32018;59.182;18.148;2024-01-30T11:28:03;21.35;;;10.55;;
46284;SDS011;32018;59.182;18.148;2024-01-30T11:30:29;10.45;;;9.45;;
46284;SDS011;32018;59.182;18.148;2024-01-30T11:32:59;7.47;;;6.80;;
46284;SDS011;32018;59.182;18.148;2024-01-30T11:35:24;7.90;;;7.20;;
46284;SDS011;32018;59.182;18.148;2024-01-30T11:37:50;8.73;;;7.97;;
46284;SDS011;32018;59.182;18.148;2024-01-30T11:40:15;8.38;;;7.05;;
46284;SDS011;32018;59.182;18.148;2024-01-30T11:42:41;8.93;;;8.23;;
46284;SDS011;32018;59.182;18.148;2024-01-30T11:45:07;8.90;;;8.13;;
46284;SDS011;32018;59.182;18.148;2024-01-30T11:47:34;7.15;;;6.55;;
46284;SDS011;32018;59.182;18.148;2024-01-30T11:49:59;6.13;;;5.53;;
46284;SDS011;32018;59.182;18.148;2024-01-30T11:52:25;8.43;;;7.72;;
46284;SDS011;32018;59.182;18.148;2024-01-30T11:54:50;7.57;;;6.95;;
46284;SDS011;32018;59.182;18.148;2024-01-30T11:57:15;10.23;;;8.45;;
46284;SDS011;32018;59.182;18.148;2024-01-30T11:59:40;7.93;;;7.18;;
46284;SDS011;32018;59.182;18.148;2024-01-30T12:02:06;6.88;;;6.28;;
46284;SDS011;32018;59.182;18.148;2024-01-30T12:04:31;7.03;;;6.43;;
46284;SDS011;32018;59.182;18.148;2024-01-30T12:06:56;7.80;;;7.10;;
46284;SDS011;32018;59.182;18.148;2024-01-30T12:09:21;7.23;;;6.63;;
46284;SDS011;32018;59.182;18.148;2024-01-30T12:11:48;6.68;;;6.10;;
46284;SDS011;32018;59.182;18.148;2024-01-30T12:14:13;8.52;;;7.70;;
46284;SDS011;32018;59.182;18.148;2024-01-30T12:16:39;23.70;;;7.82;;
46284;SDS011;32018;59.182;18.148;2024-01-30T12:19:04;17.73;;;8.52;;
46284;SDS011;32018;59.182;18.148;2024-01-30T12:21:29;6.55;;;5.95;;
46284;SDS011;32018;59.182;18.148;2024-01-30T12:23:56;8.50;;;7.80;;
46284;SDS011;32018;59.182;18.148;2024-01-30T12:26:21;7.75;;;7.15;;
46284;SDS011;32018;59.182;18.148;2024-01-30T12:28:49;8.68;;;7.93;;
46284;SDS011;32018;59.182;18.148;2024-01-30T12:31:15;7.90;;;7.13;;
46284;SDS011;32018;59.182;18.148;2024-01-30T12:33:40;6.80;;;6.20;;
46284;SDS011;32018;59.182;18.148;2024-01-30T12:36:05;7.23;;;6.63;;
46284;SDS011;32018;59.182;18.148;2024-01-30T12:38:31;8.00;;;7.20;;
46284;SDS011;32018;59.182;18.148;2024-01-30T12:40:57;7.15;;;6.53;;
46284;SDS011;32018;59.182;18.148;2024-01-30T12:43:25;6.72;;;6.13;;
46284;SDS011;32018;59.182;18.148;2024-01-30T12:45:52;7.35;;;6.60;;
46284;SDS011;32018;59.182;18.148;2024-01-30T12:48:17;15.05;;;9.38;;
46284;SDS011;32018;59.182;18.148;2024-01-30T12:50:42;6.97;;;6.37;;
46284;SDS011;32018;59.182;18.148;2024-01-30T12:53:08;20.30;;;7.38;;
46284;SDS011;32018;59.182;18.148;2024-01-30T12:55:34;8.43;;;7.82;;
46284;SDS011;32018;59.182;18.148;2024-01-30T12:57:59;13.15;;;11.15;;
46284;SDS011;32018;59.182;18.148;2024-01-30T13:00:24;9.93;;;8.80;;
46284;SDS011;32018;59.182;18.148;2024-01-30T13:02:50;7.53;;;6.93;;
46284;SDS011;32018;59.182;18.148;2024-01-30T13:05:15;12.07;;;10.98;;
46284;SDS011;32018;59.182;18.148;2024-01-30T13:07:40;17.60;;;10.65;;
46284;SDS011;32018;59.182;18.148;2024-01-30T13:10:05;7.25;;;6.18;;
46284;SDS011;32018;59.182;18.148;2024-01-30T13:12:31;15.85;;;11.40;;
46284;SDS011;32018;59.182;18.148;2024-01-30T13:14:58;12.68;;;10.18;;
46284;SDS011;32018;59.182;18.148;2024-01-30T13:17:25;10.25;;;9.32;;
46284;SDS011;32018;59.182;18.148;2024-01-30T13:19:51;12.20;;;11.00;;
46284;SDS011;32018;59.182;18.148;2024-01-30T13:22:16;7.55;;;6.80;;
46284;SDS011;32018;59.182;18.148;2024-01-30T13:24:41;23.55;;;12.27;;
46284;SDS011;32018;59.182;18.148;2024-01-30T13:27:07;7.90;;;7.20;;
46284;SDS011;32018;59.182;18.148;2024-01-30T13:29:32;9.23;;;8.43;;
46284;SDS011;32018;59.182;18.148;2024-01-30T13:31:57;9.68;;;8.75;;
46284;SDS011;32018;59.182;18.148;2024-01-30T13:34:23;8.50;;;7.80;;
46284;SDS011;32018;59.182;18.148;2024-01-30T13:36:48;9.63;;;8.65;;
46284;SDS011;32018;59.182;18.148;2024-01-30T13:39:14;14.02;;;10.30;;
46284;SDS011;32018;59.182;18.148;2024-01-30T13:41:41;9.93;;;9.02;;
46284;SDS011;32018;59.182;18.148;2024-01-30T13:44:06;7.25;;;6.65;;
46284;SDS011;32018;59.182;18.148;2024-01-30T13:46:31;14.90;;;8.15;;
46284;SDS011;32018;59.182;18.148;2024-01-30T13:48:57;10.02;;;8.45;;
46284;SDS011;32018;59.182;18.148;2024-01-30T13:51:22;13.25;;;8.52;;
46284;SDS011;32018;59.182;18.148;2024-01-30T13:53:47;13.63;;;8.60;;
46284;SDS011;32018;59.182;18.148;2024-01-30T13:56:14;14.88;;;10.35;;
46284;SDS011;32018;59.182;18.148;2024-01-30T13:58:40;10.88;;;9.80;;
46284;SDS011;32018;59.182;18.148;2024-01-30T14:01:05;10.60;;;9.57;;
46284;SDS011;32018;59.182;18.148;2024-01-30T14:03:30;16.27;;;8.70;;
46284;SDS011;32018;59.182;18.148;2024-01-30T14:05:55;12.88;;;8.32;;
46284;SDS011;32018;59.182;18.148;2024-01-30T14:08:20;30.55;;;10.32;;
46284;SDS011;32018;59.182;18.148;2024-01-30T14:10:48;28.15;;;10.75;;
46284;SDS011;32018;59.182;18.148;2024-01-30T14:13:14;11.95;;;9.45;;
46284;SDS011;32018;59.182;18.148;2024-01-30T14:15:39;7.72;;;7.00;;
46284;SDS011;32018;59.182;18.148;2024-01-30T14:18:05;10.57;;;7.05;;
46284;SDS011;32018;59.182;18.148;2024-01-30T14:20:30;16.50;;;8.98;;
46284;SDS011;32018;59.182;18.148;2024-01-30T14:22:56;7.40;;;6.80;;
46284;SDS011;32018;59.182;18.148;2024-01-30T14:25:21;9.35;;;8.55;;